sensor_id;sensor_type;location;lat;lon;timestamp;P1;durP1;ratioP1;P2;durP2;ratioP2
7359;SDS011;3720;48.274;7.796;2024-02-26T00:01:33;3.67;;;2.10;;
7359;SDS011;3720;48.274;7.796;2024-02-26T00:04:06;2.13;;;1.70;;
7359;SDS011;3720;48.274;7.796;2024-02-26T00:06:38;2.30;;;1.55;;
7359;SDS011;3720;48.274;7.796;2024-02-26T00:09:11;3.63;;;1.90;;
7359;SDS011;3720;48.274;7.796;2024-02-26T00:11:43;2.90;;;1.67;;
7359;SDS011;3720;48.274;7.796;2024-02-26T00:14:16;2.55;;;1.50;;
7359;SDS011;3720;48.274;7.796;2024-02-26T00:16:47;2.97;;;1.33;;
7359;SDS011;3720;48.274;7.796;2024-02-26T00:19:19;2.88;;;1.40;;
7359;SDS011;3720;48.274;7.796;2024-02-26T00:21:51;3.55;;;1.50;;
7359;SDS011;3720;48.274;7.796;2024-02-26T00:24:24;4.57;;;1.90;;
7359;SDS011;3720;48.274;7.796;2024-02-26T00:26:56;2.70;;;1.90;;
7359;SDS011;3720;48.274;7.796;2024-02-26T00:29:29;1.45;;;1.10;;
7359;SDS011;3720;48.274;7.796;2024-02-26T00:32:02;3.33;;;1.50;;
7359;SDS011;3720;48.274;7.796;2024-02-26T00:34:34;5.60;;;1.75;;
7359;SDS011;3720;48.274;7.796;2024-02-26T00:37:06;3.63;;;1.83;;
7359;SDS011;3720;48.274;7.796;2024-02-26T00:39:38;7.55;;;1.80;;
7359;SDS011;3720;48.274;7.796;2024-02-26T00:42:10;3.15;;;1.85;;
7359;SDS011;3720;48.274;7.796;2024-02-26T00:44:43;2.80;;;1.70;;
7359;SDS011;3720;48.274;7.796;2024-02-26T00:47:15;2.55;;;1.58;;
7359;SDS011;3720;48.274;7.796;2024-02-26T00:49:46;3.35;;;2.20;;
7359;SDS011;3720;48.274;7.796;2024-02-26T00:52:18;3.85;;;2.17;;
7359;SDS011;3720;48.274;7.796;2024-02-26T00:54:50;2.55;;;1.63;;
7359;SDS011;3720;48.274;7.796;2024-02-26T00:57:22;2.78;;;1.70;;
7359;SDS011;3720;48.274;7.796;2024-02-26T00:59:55;3.55;;;1.70;;
7359;SDS011;3720;48.274;7.796;2024-02-26T01:02:27;3.58;;;1.50;;
7359;SDS011;3720;48.274;7.796;2024-02-26T01:04:59;1.40;;;1.20;;
7359;SDS011;3720;48.274;7.796;2024-02-26T01:07:30;2.67;;;1.30;;
7359;SDS011;3720;48.274;7.796;2024-02-26T01:10:06;1.70;;;1.10;;
7359;SDS011;3720;48.274;7.796;2024-02-26T01:12:38;1.33;;;1.10;;
7359;SDS011;3720;48.274;7.796;2024-02-26T01:15:11;2.38;;;1.20;;
7359;SDS011;3720;48.274;7.796;2024-02-26T01:17:43;2.08;;;1.17;;
7359;SDS011;3720;48.274;7.796;2024-02-26T01:20:15;1.30;;;1.20;;
7359;SDS011;3720;48.274;7.796;2024-02-26T01:22:47;1.42;;;1.13;;
7359;SDS011;3720;48.274;7.796;2024-02-26T01:25:18;1.98;;;1.10;;
7359;SDS011;3720;48.274;7.796;2024-02-26T01:27:50;1.45;;;1.00;;
7359;SDS011;3720;48.274;7.796;2024-02-26T01:30:23;1.30;;;1.05;;
7359;SDS011;3720;48.274;7.796;2024-02-26T01:32:55;2.53;;;1.10;;
7359;SDS011;3720;48.274;7.796;2024-02-26T01:35:27;2.33;;;1.10;;
7359;SDS011;3720;48.274;7.796;2024-02-26T01:37:59;2.00;;;1.10;;
7359;SDS011;3720;48.274;7.796;2024-02-26T01:40:31;1.75;;;1.10;;
7359;SDS011;3720;48.274;7.796;2024-02-26T01:43:03;1.42;;;1.10;;
7359;SDS011;3720;48.274;7.796;2024-02-26T01:45:36;1.83;;;1.20;;
7359;SDS011;3720;48.274;7.796;2024-02-26T01:48:08;1.17;;;1.08;;
7359;SDS011;3720;48.274;7.796;2024-02-26T01:50:40;2.53;;;1.30;;
7359;SDS011;3720;48.274;7.796;2024-02-26T01:53:12;1.92;;;1.40;;
7359;SDS011;3720;48.274;7.796;2024-02-26T01:55:45;1.65;;;1.23;;
7359;SDS011;3720;48.274;7.796;2024-02-26T01:58:17;3.28;;;1.25;;
7359;SDS011;3720;48.274;7.796;2024-02-26T02:00:50;1.58;;;1.10;;
7359;SDS011;3720;48.274;7.796;2024-02-26T02:03:22;1.20;;;1.10;;
7359;SDS011;3720;48.274;7.796;2024-02-26T02:05:55;1.38;;;1.10;;
7359;SDS011;3720;48.274;7.796;2024-02-26T02:08:26;1.35;;;1.00;;
7359;SDS011;3720;48.274;7.796;2024-02-26T02:10:58;1.17;;;0.90;;
7359;SDS011;3720;48.274;7.796;2024-02-26T02:13:30;1.38;;;1.00;;
7359;SDS011;3720;48.274;7.796;2024-02-26T02:16:04;1.73;;;0.90;;
7359;SDS011;3720;48.274;7.796;2024-02-26T02:18:36;1.13;;;0.90;;
7359;SDS011;3720;48.274;7.796;2024-02-26T02:21:09;2.63;;;1.00;;
7359;SDS011;3720;48.274;7.796;2024-02-26T02:23:42;1.38;;;0.90;;
7359;SDS011;3720;48.274;7.796;2024-02-26T02:26:16;1.02;;;0.80;;
7359;SDS011;3720;48.274;7.796;2024-02-26T02:28:48;0.70;;;0.70;;
7359;SDS011;3720;48.274;7.796;2024-02-26T02:31:20;1.27;;;0.70;;
7359;SDS011;3720;48.274;7.796;2024-02-26T02:33:52;0.88;;;0.80;;
7359;SDS011;3720;48.274;7.796;2024-02-26T02:36:26;1.13;;;0.88;;
7359;SDS011;3720;48.274;7.796;2024-02-26T02:38:57;1.70;;;0.80;;
7359;SDS011;3720;48.274;7.796;2024-02-26T02:41:29;1.58;;;0.82;;
7359;SDS011;3720;48.274;7.796;2024-02-26T02:44:01;1.38;;;0.98;;
7359;SDS011;3720;48.274;7.796;2024-02-26T02:46:33;1.80;;;0.90;;
7359;SDS011;3720;48.274;7.796;2024-02-26T02:49:07;0.60;;;0.60;;
7359;SDS011;3720;48.274;7.796;2024-02-26T02:51:41;0.80;;;0.70;;
7359;SDS011;3720;48.274;7.796;2024-02-26T02:54:13;1.00;;;0.70;;
7359;SDS011;3720;48.274;7.796;2024-02-26T02:56:44;0.60;;;0.60;;
7359;SDS011;3720;48.274;7.796;2024-02-26T02:59:16;1.85;;;0.77;;
7359;SDS011;3720;48.274;7.796;2024-02-26T03:01:48;0.80;;;0.77;;
7359;SDS011;3720;48.274;7.796;2024-02-26T03:04:20;0.68;;;0.68;;
7359;SDS011;3720;48.274;7.796;2024-02-26T03:06:53;1.40;;;0.70;;
7359;SDS011;3720;48.274;7.796;2024-02-26T03:09:25;1.35;;;0.75;;
7359;SDS011;3720;48.274;7.796;2024-02-26T03:11:57;1.15;;;0.70;;
7359;SDS011;3720;48.274;7.796;2024-02-26T03:14:29;1.27;;;0.80;;
7359;SDS011;3720;48.274;7.796;2024-02-26T03:17:00;1.58;;;0.93;;
7359;SDS011;3720;48.274;7.796;2024-02-26T03:19:32;1.23;;;0.90;;
7359;SDS011;3720;48.274;7.796;2024-02-26T03:22:06;0.80;;;0.80;;
7359;SDS011;3720;48.274;7.796;2024-02-26T03:24:38;1.48;;;0.90;;
7359;SDS011;3720;48.274;7.796;2024-02-26T03:27:09;1.30;;;1.00;;
7359;SDS011;3720;48.274;7.796;2024-02-26T03:29:41;0.95;;;0.88;;
7359;SDS011;3720;48.274;7.796;2024-02-26T03:32:13;1.50;;;1.17;;
7359;SDS011;3720;48.274;7.796;2024-02-26T03:34:45;5.18;;;1.63;;
7359;SDS011;3720;48.274;7.796;2024-02-26T03:37:18;1.77;;;1.30;;
7359;SDS011;3720;48.274;7.796;2024-02-26T03:39:50;3.05;;;1.38;;
7359;SDS011;3720;48.274;7.796;2024-02-26T03:42:22;2.65;;;1.42;;
7359;SDS011;3720;48.274;7.796;2024-02-26T03:44:53;1.75;;;1.40;;
7359;SDS011;3720;48.274;7.796;2024-02-26T03:47:25;3.58;;;1.77;;
7359;SDS011;3720;48.274;7.796;2024-02-26T03:49:57;2.15;;;1.60;;
7359;SDS011;3720;48.274;7.796;2024-02-26T03:52:31;5.45;;;1.90;;
7359;SDS011;3720;48.274;7.796;2024-02-26T03:55:04;2.92;;;1.77;;
7359;SDS011;3720;48.274;7.796;2024-02-26T03:57:36;3.63;;;2.10;;
7359;SDS011;3720;48.274;7.796;2024-02-26T04:00:08;3.03;;;2.20;;
7359;SDS011;3720;48.274;7.796;2024-02-26T04:02:41;2.45;;;2.10;;
7359;SDS011;3720;48.274;7.796;2024-02-26T04:05:13;3.38;;;2.10;;
7359;SDS011;3720;48.274;7.796;2024-02-26T04:07:46;4.10;;;2.00;;
7359;SDS011;3720;48.274;7.796;2024-02-26T04:10:18;3.10;;;1.92;;
7359;SDS011;3720;48.274;7.796;2024-02-26T04:12:50;2.72;;;1.95;;
7359;SDS011;3720;48.274;7.796;2024-02-26T04:15:22;2.03;;;1.83;;
7359;SDS011;3720;48.274;7.796;2024-02-26T04:17:54;2.65;;;2.10;;
7359;SDS011;3720;48.274;7.796;2024-02-26T04:20:26;2.88;;;2.13;;
7359;SDS011;3720;48.274;7.796;2024-02-26T04:22:59;2.47;;;1.90;;
7359;SDS011;3720;48.274;7.796;2024-02-26T04:25:31;2.70;;;1.77;;
7359;SDS011;3720;48.274;7.796;2024-02-26T04:28:03;2.10;;;1.65;;
7359;SDS011;3720;48.274;7.796;2024-02-26T04:30:35;2.60;;;1.90;;
7359;SDS011;3720;48.274;7.796;2024-02-26T04:33:08;2.80;;;1.67;;
7359;SDS011;3720;48.274;7.796;2024-02-26T04:35:40;4.07;;;1.90;;
7359;SDS011;3720;48.274;7.796;2024-02-26T04:38:13;2.55;;;1.83;;
7359;SDS011;3720;48.274;7.796;2024-02-26T04:40:45;2.00;;;1.67;;
7359;SDS011;3720;48.274;7.796;2024-02-26T04:43:16;2.15;;;1.60;;
7359;SDS011;3720;48.274;7.796;2024-02-26T04:45:49;3.17;;;1.65;;
7359;SDS011;3720;48.274;7.796;2024-02-26T04:48:22;2.92;;;1.95;;
7359;SDS011;3720;48.274;7.796;2024-02-26T04:50:54;3.13;;;1.70;;
7359;SDS011;3720;48.274;7.796;2024-02-26T04:53:27;3.17;;;1.90;;
7359;SDS011;3720;48.274;7.796;2024-02-26T04:55:59;2.42;;;1.80;;
7359;SDS011;3720;48.274;7.796;2024-02-26T04:58:31;2.70;;;2.20;;
7359;SDS011;3720;48.274;7.796;2024-02-26T05:01:03;3.22;;;2.35;;
7359;SDS011;3720;48.274;7.796;2024-02-26T05:03:35;3.92;;;2.75;;
7359;SDS011;3720;48.274;7.796;2024-02-26T05:06:07;3.70;;;2.80;;
7359;SDS011;3720;48.274;7.796;2024-02-26T05:08:40;3.10;;;2.33;;
7359;SDS011;3720;48.274;7.796;2024-02-26T05:11:14;2.95;;;1.92;;
7359;SDS011;3720;48.274;7.796;2024-02-26T05:13:47;3.63;;;1.98;;
7359;SDS011;3720;48.274;7.796;2024-02-26T05:16:19;2.35;;;1.85;;
7359;SDS011;3720;48.274;7.796;2024-02-26T05:18:54;5.07;;;2.05;;
7359;SDS011;3720;48.274;7.796;2024-02-26T05:21:26;2.03;;;1.83;;
7359;SDS011;3720;48.274;7.796;2024-02-26T05:23:59;2.30;;;1.83;;
7359;SDS011;3720;48.274;7.796;2024-02-26T05:26:31;3.05;;;1.80;;
7359;SDS011;3720;48.274;7.796;2024-02-26T05:29:03;2.00;;;1.80;;
7359;SDS011;3720;48.274;7.796;2024-02-26T05:31:35;3.65;;;2.22;;
7359;SDS011;3720;48.274;7.796;2024-02-26T05:34:07;2.55;;;1.67;;
7359;SDS011;3720;48.274;7.796;2024-02-26T05:36:39;2.10;;;1.70;;
7359;SDS011;3720;48.274;7.796;2024-02-26T05:39:12;1.70;;;1.60;;
7359;SDS011;3720;48.274;7.796;2024-02-26T05:41:44;2.03;;;1.70;;
7359;SDS011;3720;48.274;7.796;2024-02-26T05:44:16;2.67;;;2.00;;
7359;SDS011;3720;48.274;7.796;2024-02-26T05:46:48;2.88;;;2.38;;
7359;SDS011;3720;48.274;7.796;2024-02-26T05:49:20;3.40;;;2.30;;
7359;SDS011;3720;48.274;7.796;2024-02-26T05:51:53;3.15;;;2.17;;
7359;SDS011;3720;48.274;7.796;2024-02-26T05:54:26;2.88;;;2.10;;
7359;SDS011;3720;48.274;7.796;2024-02-26T05:56:58;3.17;;;1.95;;
7359;SDS011;3720;48.274;7.796;2024-02-26T05:59:29;3.35;;;2.10;;
7359;SDS011;3720;48.274;7.796;2024-02-26T06:02:01;3.45;;;2.20;;
7359;SDS011;3720;48.274;7.796;2024-02-26T06:04:33;2.83;;;2.30;;
7359;SDS011;3720;48.274;7.796;2024-02-26T06:07:15;2.10;;;1.90;;
7359;SDS011;3720;48.274;7.796;2024-02-26T06:09:48;3.53;;;2.20;;
7359;SDS011;3720;48.274;7.796;2024-02-26T06:12:20;2.95;;;2.13;;
7359;SDS011;3720;48.274;7.796;2024-02-26T06:14:52;3.88;;;2.22;;
7359;SDS011;3720;48.274;7.796;2024-02-26T06:17:23;3.67;;;2.00;;
7359;SDS011;3720;48.274;7.796;2024-02-26T06:19:55;3.15;;;1.65;;
7359;SDS011;3720;48.274;7.796;2024-02-26T06:22:29;4.25;;;2.00;;
7359;SDS011;3720;48.274;7.796;2024-02-26T06:25:03;3.00;;;1.80;;
7359;SDS011;3720;48.274;7.796;2024-02-26T06:27:35;2.78;;;1.70;;
7359;SDS011;3720;48.274;7.796;2024-02-26T06:30:07;3.47;;;1.80;;
7359;SDS011;3720;48.274;7.796;2024-02-26T06:32:41;3.15;;;1.70;;
7359;SDS011;3720;48.274;7.796;2024-02-26T06:35:13;3.20;;;2.10;;
7359;SDS011;3720;48.274;7.796;2024-02-26T06:37:45;2.17;;;1.73;;
7359;SDS011;3720;48.274;7.796;2024-02-26T06:40:18;4.03;;;1.90;;
7359;SDS011;3720;48.274;7.796;2024-02-26T06:42:51;2.95;;;1.90;;
7359;SDS011;3720;48.274;7.796;2024-02-26T06:45:23;3.80;;;1.85;;
7359;SDS011;3720;48.274;7.796;2024-02-26T06:47:55;2.63;;;1.80;;
7359;SDS011;3720;48.274;7.796;2024-02-26T06:50:27;4.47;;;2.20;;
7359;SDS011;3720;48.274;7.796;2024-02-26T06:52:59;2.38;;;1.80;;
7359;SDS011;3720;48.274;7.796;2024-02-26T06:55:32;4.28;;;2.10;;
7359;SDS011;3720;48.274;7.796;2024-02-26T06:58:04;7.30;;;2.90;;
7359;SDS011;3720;48.274;7.796;2024-02-26T07:00:36;5.00;;;3.33;;
7359;SDS011;3720;48.274;7.796;2024-02-26T07:03:08;5.03;;;3.50;;
7359;SDS011;3720;48.274;7.796;2024-02-26T07:05:40;6.10;;;3.78;;
7359;SDS011;3720;48.274;7.796;2024-02-26T07:08:12;6.70;;;4.00;;
7359;SDS011;3720;48.274;7.796;2024-02-26T07:10:45;4.75;;;3.85;;
7359;SDS011;3720;48.274;7.796;2024-02-26T07:13:17;10.20;;;5.45;;
7359;SDS011;3720;48.274;7.796;2024-02-26T07:15:49;7.63;;;5.30;;
7359;SDS011;3720;48.274;7.796;2024-02-26T07:18:20;6.78;;;5.00;;
7359;SDS011;3720;48.274;7.796;2024-02-26T07:20:52;6.43;;;4.55;;
7359;SDS011;3720;48.274;7.796;2024-02-26T07:23:24;6.82;;;4.85;;
7359;SDS011;3720;48.274;7.796;2024-02-26T07:25:57;6.72;;;4.57;;
7359;SDS011;3720;48.274;7.796;2024-02-26T07:28:30;7.88;;;4.80;;
7359;SDS011;3720;48.274;7.796;2024-02-26T07:31:02;8.25;;;5.95;;
7359;SDS011;3720;48.274;7.796;2024-02-26T07:33:34;9.95;;;6.68;;
7359;SDS011;3720;48.274;7.796;2024-02-26T07:36:06;13.48;;;7.63;;
7359;SDS011;3720;48.274;7.796;2024-02-26T07:38:38;15.10;;;8.25;;
7359;SDS011;3720;48.274;7.796;2024-02-26T07:41:11;13.40;;;7.40;;
7359;SDS011;3720;48.274;7.796;2024-02-26T07:43:44;14.00;;;8.10;;
7359;SDS011;3720;48.274;7.796;2024-02-26T07:46:15;10.85;;;6.47;;
7359;SDS011;3720;48.274;7.796;2024-02-26T07:48:47;9.70;;;5.10;;
7359;SDS011;3720;48.274;7.796;2024-02-26T07:51:19;6.18;;;4.57;;
7359;SDS011;3720;48.274;7.796;2024-02-26T07:53:52;8.65;;;4.72;;
7359;SDS011;3720;48.274;7.796;2024-02-26T07:56:25;6.55;;;4.00;;
7359;SDS011;3720;48.274;7.796;2024-02-26T07:58:57;6.65;;;4.15;;
7359;SDS011;3720;48.274;7.796;2024-02-26T08:01:29;7.13;;;4.28;;
7359;SDS011;3720;48.274;7.796;2024-02-26T08:04:01;6.25;;;4.25;;
7359;SDS011;3720;48.274;7.796;2024-02-26T08:06:33;5.22;;;3.70;;
7359;SDS011;3720;48.274;7.796;2024-02-26T08:09:04;6.10;;;3.90;;
7359;SDS011;3720;48.274;7.796;2024-02-26T08:11:38;5.45;;;3.75;;
7359;SDS011;3720;48.274;7.796;2024-02-26T08:14:10;4.18;;;3.60;;
7359;SDS011;3720;48.274;7.796;2024-02-26T08:16:41;7.00;;;4.28;;
7359;SDS011;3720;48.274;7.796;2024-02-26T08:19:13;5.13;;;3.60;;
7359;SDS011;3720;48.274;7.796;2024-02-26T08:21:45;5.43;;;3.50;;
7359;SDS011;3720;48.274;7.796;2024-02-26T08:24:17;5.28;;;3.35;;
7359;SDS011;3720;48.274;7.796;2024-02-26T08:26:50;6.80;;;3.88;;
7359;SDS011;3720;48.274;7.796;2024-02-26T08:29:22;5.85;;;3.47;;
7359;SDS011;3720;48.274;7.796;2024-02-26T08:31:54;5.15;;;3.60;;
7359;SDS011;3720;48.274;7.796;2024-02-26T08:34:26;4.15;;;3.33;;
7359;SDS011;3720;48.274;7.796;2024-02-26T08:36:58;8.13;;;4.00;;
7359;SDS011;3720;48.274;7.796;2024-02-26T08:39:30;5.40;;;3.85;;
7359;SDS011;3720;48.274;7.796;2024-02-26T08:42:03;5.72;;;3.63;;
7359;SDS011;3720;48.274;7.796;2024-02-26T08:44:35;6.97;;;3.80;;
7359;SDS011;3720;48.274;7.796;2024-02-26T08:47:07;3.92;;;3.20;;
7359;SDS011;3720;48.274;7.796;2024-02-26T08:49:42;3.60;;;3.00;;
7359;SDS011;3720;48.274;7.796;2024-02-26T08:52:14;3.65;;;2.83;;
7359;SDS011;3720;48.274;7.796;2024-02-26T08:54:45;4.43;;;3.63;;
7359;SDS011;3720;48.274;7.796;2024-02-26T08:57:19;4.35;;;3.20;;
7359;SDS011;3720;48.274;7.796;2024-02-26T08:59:50;7.00;;;4.32;;
7359;SDS011;3720;48.274;7.796;2024-02-26T09:02:22;5.47;;;3.78;;
7359;SDS011;3720;48.274;7.796;2024-02-26T09:04:54;5.63;;;4.25;;
7359;SDS011;3720;48.274;7.796;2024-02-26T09:07:27;4.78;;;3.70;;
7359;SDS011;3720;48.274;7.796;2024-02-26T09:09:58;4.53;;;3.45;;
7359;SDS011;3720;48.274;7.796;2024-02-26T09:12:32;4.13;;;3.00;;
7359;SDS011;3720;48.274;7.796;2024-02-26T09:15:05;3.47;;;2.60;;
7359;SDS011;3720;48.274;7.796;2024-02-26T09:17:38;4.30;;;2.13;;
7359;SDS011;3720;48.274;7.796;2024-02-26T09:20:10;2.38;;;1.80;;
7359;SDS011;3720;48.274;7.796;2024-02-26T09:22:43;6.05;;;2.47;;
7359;SDS011;3720;48.274;7.796;2024-02-26T09:25:15;3.78;;;2.38;;
7359;SDS011;3720;48.274;7.796;2024-02-26T09:27:49;4.13;;;2.00;;
7359;SDS011;3720;48.274;7.796;2024-02-26T09:30:21;3.53;;;1.70;;
7359;SDS011;3720;48.274;7.796;2024-02-26T09:32:53;2.50;;;1.60;;
7359;SDS011;3720;48.274;7.796;2024-02-26T09:35:25;1.48;;;1.20;;
7359;SDS011;3720;48.274;7.796;2024-02-26T09:37:57;2.00;;;1.40;;
7359;SDS011;3720;48.274;7.796;2024-02-26T09:40:29;1.90;;;1.60;;
7359;SDS011;3720;48.274;7.796;2024-02-26T09:43:03;3.05;;;1.95;;
7359;SDS011;3720;48.274;7.796;2024-02-26T09:45:37;3.17;;;1.57;;
7359;SDS011;3720;48.274;7.796;2024-02-26T09:48:09;2.80;;;1.50;;
7359;SDS011;3720;48.274;7.796;2024-02-26T09:50:43;2.58;;;1.88;;
7359;SDS011;3720;48.274;7.796;2024-02-26T09:53:15;3.22;;;1.90;;
7359;SDS011;3720;48.274;7.796;2024-02-26T09:55:49;2.83;;;1.70;;
7359;SDS011;3720;48.274;7.796;2024-02-26T09:58:23;4.70;;;2.20;;
7359;SDS011;3720;48.274;7.796;2024-02-26T10:00:56;3.33;;;1.65;;
7359;SDS011;3720;48.274;7.796;2024-02-26T10:03:32;3.28;;;1.80;;
7359;SDS011;3720;48.274;7.796;2024-02-26T10:06:10;3.90;;;2.00;;
7359;SDS011;3720;48.274;7.796;2024-02-26T10:08:42;7.70;;;2.00;;
7359;SDS011;3720;48.274;7.796;2024-02-26T10:11:15;3.95;;;2.10;;
7359;SDS011;3720;48.274;7.796;2024-02-26T10:13:49;5.35;;;2.30;;
7359;SDS011;3720;48.274;7.796;2024-02-26T10:16:21;4.45;;;2.15;;
7359;SDS011;3720;48.274;7.796;2024-02-26T10:18:53;5.55;;;3.00;;
7359;SDS011;3720;48.274;7.796;2024-02-26T10:21:25;4.22;;;2.55;;
7359;SDS011;3720;48.274;7.796;2024-02-26T10:23:56;4.07;;;2.50;;
7359;SDS011;3720;48.274;7.796;2024-02-26T10:26:28;4.72;;;2.40;;
7359;SDS011;3720;48.274;7.796;2024-02-26T10:29:01;3.85;;;2.40;;
7359;SDS011;3720;48.274;7.796;2024-02-26T10:31:33;3.85;;;2.00;;
7359;SDS011;3720;48.274;7.796;2024-02-26T10:34:05;3.88;;;1.80;;
7359;SDS011;3720;48.274;7.796;2024-02-26T10:36:37;3.35;;;2.10;;
7359;SDS011;3720;48.274;7.796;2024-02-26T10:39:11;3.38;;;2.35;;
7359;SDS011;3720;48.274;7.796;2024-02-26T10:41:44;4.28;;;2.55;;
7359;SDS011;3720;48.274;7.796;2024-02-26T10:44:17;4.07;;;2.25;;
7359;SDS011;3720;48.274;7.796;2024-02-26T10:46:49;3.38;;;2.00;;
7359;SDS011;3720;48.274;7.796;2024-02-26T10:49:21;2.60;;;2.00;;
7359;SDS011;3720;48.274;7.796;2024-02-26T10:51:55;3.05;;;2.00;;
7359;SDS011;3720;48.274;7.796;2024-02-26T10:54:28;4.13;;;2.08;;
7359;SDS011;3720;48.274;7.796;2024-02-26T10:57:00;2.72;;;1.73;;
7359;SDS011;3720;48.274;7.796;2024-02-26T10:59:35;4.00;;;2.08;;
7359;SDS011;3720;48.274;7.796;2024-02-26T11:02:09;3.55;;;2.53;;
7359;SDS011;3720;48.274;7.796;2024-02-26T11:04:41;3.35;;;2.13;;
7359;SDS011;3720;48.274;7.796;2024-02-26T11:07:15;3.00;;;2.20;;
7359;SDS011;3720;48.274;7.796;2024-02-26T11:09:48;4.80;;;3.20;;
7359;SDS011;3720;48.274;7.796;2024-02-26T11:12:22;2.35;;;1.58;;
7359;SDS011;3720;48.274;7.796;2024-02-26T11:14:57;2.45;;;1.80;;
7359;SDS011;3720;48.274;7.796;2024-02-26T11:17:31;3.47;;;2.20;;
7359;SDS011;3720;48.274;7.796;2024-02-26T11:20:05;4.82;;;3.40;;
7359;SDS011;3720;48.274;7.796;2024-02-26T11:22:41;3.97;;;2.65;;
7359;SDS011;3720;48.274;7.796;2024-02-26T11:25:12;3.53;;;2.28;;
7359;SDS011;3720;48.274;7.796;2024-02-26T11:27:49;2.95;;;2.08;;
7359;SDS011;3720;48.274;7.796;2024-02-26T11:30:26;5.53;;;3.08;;
7359;SDS011;3720;48.274;7.796;2024-02-26T11:33:02;4.70;;;2.50;;
7359;SDS011;3720;48.274;7.796;2024-02-26T11:35:34;4.32;;;2.25;;
7359;SDS011;3720;48.274;7.796;2024-02-26T11:38:07;2.90;;;1.80;;
7359;SDS011;3720;48.274;7.796;2024-02-26T11:40:48;4.68;;;2.30;;
7359;SDS011;3720;48.274;7.796;2024-02-26T11:43:23;2.90;;;2.08;;
7359;SDS011;3720;48.274;7.796;2024-02-26T11:45:56;1.20;;;0.90;;
7359;SDS011;3720;48.274;7.796;2024-02-26T11:48:30;2.45;;;1.00;;
7359;SDS011;3720;48.274;7.796;2024-02-26T11:51:03;3.33;;;1.23;;
7359;SDS011;3720;48.274;7.796;2024-02-26T11:53:38;2.90;;;1.67;;
7359;SDS011;3720;48.274;7.796;2024-02-26T11:56:22;2.58;;;1.40;;
7359;SDS011;3720;48.274;7.796;2024-02-26T11:58:57;1.90;;;1.00;;
7359;SDS011;3720;48.274;7.796;2024-02-26T12:01:41;1.27;;;0.90;;
7359;SDS011;3720;48.274;7.796;2024-02-26T12:04:17;1.35;;;1.00;;
7359;SDS011;3720;48.274;7.796;2024-02-26T12:06:51;2.42;;;1.20;;
7359;SDS011;3720;48.274;7.796;2024-02-26T12:09:33;2.47;;;1.30;;
7359;SDS011;3720;48.274;7.796;2024-02-26T12:12:06;4.68;;;1.20;;
7359;SDS011;3720;48.274;7.796;2024-02-26T12:14:40;4.07;;;1.73;;
7359;SDS011;3720;48.274;7.796;2024-02-26T12:17:23;5.78;;;2.30;;
7359;SDS011;3720;48.274;7.796;2024-02-26T12:19:55;3.88;;;1.83;;
7359;SDS011;3720;48.274;7.796;2024-02-26T12:22:39;2.28;;;1.70;;
7359;SDS011;3720;48.274;7.796;2024-02-26T12:25:12;3.63;;;1.77;;
7359;SDS011;3720;48.274;7.796;2024-02-26T12:27:44;4.22;;;2.60;;
7359;SDS011;3720;48.274;7.796;2024-02-26T12:30:16;4.20;;;2.42;;
7359;SDS011;3720;48.274;7.796;2024-02-26T12:32:51;2.70;;;2.10;;
7359;SDS011;3720;48.274;7.796;2024-02-26T12:35:27;2.33;;;1.60;;
7359;SDS011;3720;48.274;7.796;2024-02-26T12:38:01;2.00;;;1.60;;
7359;SDS011;3720;48.274;7.796;2024-02-26T12:40:35;2.50;;;1.50;;
7359;SDS011;3720;48.274;7.796;2024-02-26T12:43:07;3.25;;;1.45;;
7359;SDS011;3720;48.274;7.796;2024-02-26T12:45:42;2.58;;;2.00;;
7359;SDS011;3720;48.274;7.796;2024-02-26T12:48:17;3.45;;;2.10;;
7359;SDS011;3720;48.274;7.796;2024-02-26T12:50:50;2.53;;;1.52;;
7359;SDS011;3720;48.274;7.796;2024-02-26T12:53:22;1.80;;;1.20;;
7359;SDS011;3720;48.274;7.796;2024-02-26T12:55:54;2.25;;;1.42;;
7359;SDS011;3720;48.274;7.796;2024-02-26T12:58:26;1.65;;;1.30;;
7359;SDS011;3720;48.274;7.796;2024-02-26T13:00:58;3.30;;;1.50;;
7359;SDS011;3720;48.274;7.796;2024-02-26T13:03:32;1.98;;;1.33;;
7359;SDS011;3720;48.274;7.796;2024-02-26T13:06:05;1.85;;;1.50;;
7359;SDS011;3720;48.274;7.796;2024-02-26T13:08:38;2.25;;;1.40;;
7359;SDS011;3720;48.274;7.796;2024-02-26T13:11:10;1.67;;;1.40;;
7359;SDS011;3720;48.274;7.796;2024-02-26T13:13:42;2.35;;;1.58;;
7359;SDS011;3720;48.274;7.796;2024-02-26T13:16:18;2.47;;;1.50;;
7359;SDS011;3720;48.274;7.796;2024-02-26T13:18:51;4.28;;;2.33;;
7359;SDS011;3720;48.274;7.796;2024-02-26T13:21:23;2.80;;;1.70;;
7359;SDS011;3720;48.274;7.796;2024-02-26T13:23:56;3.60;;;2.65;;
7359;SDS011;3720;48.274;7.796;2024-02-26T13:26:28;4.53;;;2.80;;
7359;SDS011;3720;48.274;7.796;2024-02-26T13:29:00;6.75;;;4.25;;
7359;SDS011;3720;48.274;7.796;2024-02-26T13:31:38;3.05;;;2.20;;
7359;SDS011;3720;48.274;7.796;2024-02-26T13:34:12;2.70;;;2.00;;
7359;SDS011;3720;48.274;7.796;2024-02-26T13:36:54;4.47;;;2.25;;
7359;SDS011;3720;48.274;7.796;2024-02-26T13:39:27;4.03;;;2.70;;
7359;SDS011;3720;48.274;7.796;2024-02-26T13:42:00;7.80;;;3.55;;
7359;SDS011;3720;48.274;7.796;2024-02-26T13:44:32;3.45;;;1.90;;
7359;SDS011;3720;48.274;7.796;2024-02-26T13:47:09;2.67;;;1.98;;
7359;SDS011;3720;48.274;7.796;2024-02-26T13:49:42;3.47;;;1.90;;
7359;SDS011;3720;48.274;7.796;2024-02-26T13:52:14;2.30;;;1.90;;
7359;SDS011;3720;48.274;7.796;2024-02-26T13:54:46;3.65;;;2.53;;
7359;SDS011;3720;48.274;7.796;2024-02-26T13:57:18;2.88;;;2.22;;
7359;SDS011;3720;48.274;7.796;2024-02-26T13:59:50;3.33;;;2.80;;
7359;SDS011;3720;48.274;7.796;2024-02-26T14:02:22;4.95;;;3.30;;
7359;SDS011;3720;48.274;7.796;2024-02-26T14:04:55;3.22;;;2.30;;
7359;SDS011;3720;48.274;7.796;2024-02-26T14:07:27;3.45;;;2.28;;
7359;SDS011;3720;48.274;7.796;2024-02-26T14:09:59;5.03;;;3.38;;
7359;SDS011;3720;48.274;7.796;2024-02-26T14:12:31;6.05;;;3.60;;
7359;SDS011;3720;48.274;7.796;2024-02-26T14:15:03;3.50;;;2.72;;
7359;SDS011;3720;48.274;7.796;2024-02-26T14:17:35;6.65;;;3.80;;
7359;SDS011;3720;48.274;7.796;2024-02-26T14:20:09;4.18;;;2.90;;
7359;SDS011;3720;48.274;7.796;2024-02-26T14:22:41;5.28;;;2.40;;
7359;SDS011;3720;48.274;7.796;2024-02-26T14:25:13;6.32;;;3.00;;
7359;SDS011;3720;48.274;7.796;2024-02-26T14:27:45;5.57;;;2.55;;
7359;SDS011;3720;48.274;7.796;2024-02-26T14:30:17;5.28;;;2.47;;
7359;SDS011;3720;48.274;7.796;2024-02-26T14:32:49;3.95;;;2.83;;
7359;SDS011;3720;48.274;7.796;2024-02-26T14:35:22;5.10;;;3.30;;
7359;SDS011;3720;48.274;7.796;2024-02-26T14:37:55;4.30;;;3.10;;
7359;SDS011;3720;48.274;7.796;2024-02-26T14:40:30;6.95;;;4.80;;
7359;SDS011;3720;48.274;7.796;2024-02-26T14:43:02;5.95;;;4.18;;
7359;SDS011;3720;48.274;7.796;2024-02-26T14:45:35;9.73;;;5.60;;
7359;SDS011;3720;48.274;7.796;2024-02-26T14:48:08;9.25;;;4.50;;
7359;SDS011;3720;48.274;7.796;2024-02-26T14:50:41;8.80;;;4.20;;
7359;SDS011;3720;48.274;7.796;2024-02-26T14:53:13;7.50;;;4.60;;
7359;SDS011;3720;48.274;7.796;2024-02-26T14:55:45;8.63;;;3.85;;
7359;SDS011;3720;48.274;7.796;2024-02-26T14:58:17;4.30;;;3.10;;
7359;SDS011;3720;48.274;7.796;2024-02-26T15:00:49;5.43;;;2.85;;
7359;SDS011;3720;48.274;7.796;2024-02-26T15:03:22;9.40;;;5.40;;
7359;SDS011;3720;48.274;7.796;2024-02-26T15:05:55;7.43;;;4.53;;
7359;SDS011;3720;48.274;7.796;2024-02-26T15:08:27;7.78;;;4.60;;
7359;SDS011;3720;48.274;7.796;2024-02-26T15:11:00;10.15;;;4.88;;
7359;SDS011;3720;48.274;7.796;2024-02-26T15:13:33;9.77;;;5.53;;
7359;SDS011;3720;48.274;7.796;2024-02-26T15:16:05;8.35;;;5.22;;
7359;SDS011;3720;48.274;7.796;2024-02-26T15:18:37;6.53;;;3.08;;
7359;SDS011;3720;48.274;7.796;2024-02-26T15:21:10;3.92;;;2.30;;
7359;SDS011;3720;48.274;7.796;2024-02-26T15:23:43;4.07;;;2.40;;
7359;SDS011;3720;48.274;7.796;2024-02-26T15:26:15;3.65;;;2.47;;
7359;SDS011;3720;48.274;7.796;2024-02-26T15:28:49;2.92;;;1.90;;
7359;SDS011;3720;48.274;7.796;2024-02-26T15:31:20;3.10;;;2.00;;
7359;SDS011;3720;48.274;7.796;2024-02-26T15:33:52;3.50;;;1.90;;
7359;SDS011;3720;48.274;7.796;2024-02-26T15:36:25;3.67;;;2.00;;
7359;SDS011;3720;48.274;7.796;2024-02-26T15:38:57;2.70;;;1.98;;
7359;SDS011;3720;48.274;7.796;2024-02-26T15:41:29;5.00;;;2.00;;
7359;SDS011;3720;48.274;7.796;2024-02-26T15:44:01;4.82;;;1.80;;
7359;SDS011;3720;48.274;7.796;2024-02-26T15:46:33;3.72;;;1.75;;
7359;SDS011;3720;48.274;7.796;2024-02-26T15:49:09;4.70;;;2.60;;